createdAt,value
2023-05-05T00:01:35.015Z,58.32
2023-05-05T00:04:01.899Z,58.07
2023-05-05T00:06:31.627Z,57.90
2023-05-05T00:08:58.515Z,57.82
2023-05-05T00:11:26.047Z,58.63
2023-05-05T00:13:52.871Z,58.08
2023-05-05T00:16:20.107Z,57.73
2023-05-05T00:18:48.389Z,58.44
2023-05-05T00:21:15.758Z,58.94
2023-05-05T00:23:42.719Z,58.33
2023-05-05T00:26:09.445Z,58.56
2023-05-05T00:28:38.002Z,58.72
2023-05-05T00:31:09.585Z,58.46
2023-05-05T00:33:37.708Z,58.60
2023-05-05T00:36:07.044Z,58.49
2023-05-05T00:38:33.983Z,58.98
2023-05-05T00:41:00.824Z,58.29
2023-05-05T00:43:27.843Z,58.95
2023-05-05T00:46:02.129Z,58.73
2023-05-05T00:48:30.799Z,58.97
2023-05-05T00:50:58.333Z,59.02
2023-05-05T00:53:27.194Z,59.11
2023-05-05T00:55:54.268Z,59.12
2023-05-05T00:58:21.142Z,59.09
2023-05-05T01:00:48.562Z,59.47
2023-05-05T01:03:15.590Z,59.34
2023-05-05T01:06:05.221Z,59.31
2023-05-05T01:08:54.052Z,59.32
2023-05-05T01:11:35.653Z,59.43
2023-05-05T01:14:16.970Z,59.32
2023-05-05T01:16:55.226Z,59.72
2023-05-05T01:19:59.604Z,59.64
2023-05-05T01:22:33.063Z,60.15
2023-05-05T01:25:33.725Z,59.69
2023-05-05T01:28:25.457Z,59.52
2023-05-05T01:31:51.473Z,60.16
2023-05-05T01:34:26.354Z,60.34
2023-05-05T01:37:10.003Z,60.51
2023-05-05T01:39:38.757Z,60.54
2023-05-05T01:42:10.277Z,60.69
2023-05-05T01:44:38.330Z,61.32
2023-05-05T01:47:06.452Z,61.18
2023-05-05T01:49:34.598Z,60.85
2023-05-05T01:52:03.804Z,61.07
2023-05-05T01:54:33.559Z,60.61
2023-05-05T01:57:02.386Z,60.71
2023-05-05T01:59:29.116Z,61.07
2023-05-05T02:01:59.641Z,61.17
2023-05-05T02:04:28.393Z,60.85
2023-05-05T02:06:58.342Z,61.19
2023-05-05T02:09:28.734Z,61.20
2023-05-05T02:11:57.080Z,60.89
2023-05-05T02:14:28.977Z,60.96
2023-05-05T02:16:58.155Z,60.47
2023-05-05T02:19:30.912Z,61.09
2023-05-05T02:21:58.078Z,61.37
2023-05-05T02:24:26.484Z,60.55
2023-05-05T02:26:56.018Z,60.98
2023-05-05T02:29:38.847Z,61.03
2023-05-05T02:32:09.419Z,61.37
2023-05-05T02:34:40.223Z,60.63
2023-05-05T02:37:15.770Z,61.00
2023-05-05T02:39:54.786Z,60.98
2023-05-05T02:42:22.961Z,60.77
2023-05-05T02:44:52.683Z,60.73
2023-05-05T02:47:20.980Z,61.04
2023-05-05T02:49:50.290Z,61.05
2023-05-05T02:52:17.029Z,61.88
2023-05-05T02:54:47.616Z,61.38
2023-05-05T02:57:20.276Z,61.33
2023-05-05T03:00:10.639Z,60.88
2023-05-05T03:02:47.246Z,61.02
2023-05-05T03:05:21.251Z,60.85
2023-05-05T03:08:03.385Z,60.54
2023-05-05T03:10:40.328Z,60.80
2023-05-05T03:13:11.499Z,61.50
2023-05-05T03:15:49.318Z,61.06
2023-05-05T03:18:22.474Z,61.14
2023-05-05T03:20:56.039Z,60.86
2023-05-05T03:23:23.408Z,60.58
2023-05-05T03:25:55.390Z,60.35
2023-05-05T03:28:34.761Z,60.62
2023-05-05T03:31:20.362Z,59.98
2023-05-05T03:33:51.926Z,60.28
2023-05-05T03:36:21.586Z,59.94
2023-05-05T03:38:51.130Z,59.72
2023-05-05T03:41:23.644Z,60.31
2023-05-05T03:43:51.944Z,60.20
2023-05-05T03:46:19.220Z,59.93
2023-05-05T03:48:46.344Z,59.97
2023-05-05T03:51:13.573Z,59.42
2023-05-05T03:53:40.841Z,59.17
2023-05-05T03:56:08.977Z,59.98
2023-05-05T03:58:35.754Z,60.03
2023-05-05T04:01:02.577Z,59.38
2023-05-05T04:03:29.577Z,59.84
2023-05-05T04:05:56.379Z,59.82
2023-05-05T04:08:23.970Z,59.90
2023-05-05T04:10:51.139Z,59.55
2023-05-05T04:13:18.098Z,59.78
2023-05-05T04:15:46.435Z,60.21
2023-05-05T04:18:14.360Z,59.91
2023-05-05T04:20:41.162Z,60.85
2023-05-05T04:23:08.433Z,61.05
2023-05-05T04:25:35.814Z,61.15
2023-05-05T04:28:02.913Z,61.08
2023-05-05T04:30:33.547Z,61.42
2023-05-05T04:33:00.990Z,61.52
2023-05-05T04:35:28.033Z,62.59
2023-05-05T04:37:54.944Z,62.84
2023-05-05T04:40:22.198Z,62.77
2023-05-05T04:42:49.460Z,62.80
2023-05-05T04:45:16.825Z,62.62
2023-05-05T04:47:43.685Z,63.00
2023-05-05T04:50:11.539Z,63.40
2023-05-05T04:52:39.499Z,63.23
2023-05-05T04:55:06.854Z,63.66
2023-05-05T04:57:33.645Z,63.68
2023-05-05T05:00:00.976Z,63.62
2023-05-05T05:02:27.982Z,64.18
2023-05-05T05:04:54.867Z,64.42
2023-05-05T05:07:21.703Z,63.26
2023-05-05T05:09:48.553Z,63.66
2023-05-05T05:12:16.707Z,63.98
2023-05-05T05:14:43.561Z,64.07
2023-05-05T05:17:10.242Z,64.56
2023-05-05T05:19:37.013Z,64.58
2023-05-05T05:22:04.104Z,64.58
2023-05-05T05:24:34.737Z,64.39
2023-05-05T05:27:01.686Z,64.68
2023-05-05T05:29:28.862Z,64.83
2023-05-05T05:31:57.757Z,64.84
2023-05-05T05:34:24.782Z,65.76
2023-05-05T05:36:54.814Z,65.71
2023-05-05T05:39:22.582Z,65.55
2023-05-05T05:41:50.057Z,65.66
2023-05-05T05:44:16.865Z,65.17
2023-05-05T05:46:44.010Z,66.11
2023-05-05T05:49:13.506Z,65.38
2023-05-05T05:51:40.602Z,66.12
2023-05-05T05:54:07.416Z,66.42
2023-05-05T05:56:35.692Z,66.24
2023-05-05T05:59:04.596Z,65.90
2023-05-05T06:01:31.705Z,66.09
2023-05-05T06:03:58.601Z,66.19
2023-05-05T06:06:25.592Z,66.15
2023-05-05T06:08:52.387Z,66.74
2023-05-05T06:11:19.294Z,66.13
2023-05-05T06:13:46.212Z,67.01
2023-05-05T06:16:16.158Z,66.33
2023-05-05T06:18:45.055Z,66.14
2023-05-05T06:21:13.332Z,67.09
2023-05-05T06:23:43.275Z,66.93
2023-05-05T06:26:10.123Z,67.18
2023-05-05T06:28:37.337Z,67.26
2023-05-05T06:31:04.834Z,66.75
2023-05-05T06:33:31.678Z,67.57
2023-05-05T06:35:58.581Z,67.53
2023-05-05T06:38:25.678Z,67.09
2023-05-05T06:40:52.893Z,68.01
2023-05-05T06:43:19.692Z,68.08
2023-05-05T06:45:53.335Z,67.72
2023-05-05T06:48:20.690Z,67.47
2023-05-05T06:50:47.827Z,67.52
2023-05-05T06:53:14.666Z,67.98
2023-05-05T06:55:46.286Z,67.95
2023-05-05T06:58:13.257Z,67.50
2023-05-05T07:00:42.833Z,67.85
2023-05-05T07:03:09.779Z,67.41
2023-05-05T07:05:36.865Z,67.34
2023-05-05T07:08:03.775Z,67.71
2023-05-05T07:10:34.212Z,66.70
2023-05-05T07:13:01.321Z,67.59
2023-05-05T07:15:29.570Z,67.40
2023-05-05T07:17:57.130Z,66.82
2023-05-05T07:20:24.317Z,66.72
2023-05-05T07:22:51.306Z,66.91
2023-05-05T07:25:18.260Z,67.13
2023-05-05T07:27:45.344Z,66.01
2023-05-05T07:30:16.295Z,66.30
2023-05-05T07:32:44.678Z,66.54
2023-05-05T07:35:11.546Z,66.05
2023-05-05T07:37:38.449Z,66.41
2023-05-05T07:40:06.332Z,66.63
2023-05-05T07:42:35.945Z,66.58
2023-05-05T07:45:03.326Z,66.56
2023-05-05T07:47:30.399Z,66.98
2023-05-05T07:49:57.633Z,66.41
2023-05-05T07:52:37.324Z,65.37
2023-05-05T07:55:18.243Z,64.52
2023-05-05T07:57:44.991Z,65.00
2023-05-05T08:00:13.473Z,64.46
2023-05-05T08:02:41.265Z,64.21
2023-05-05T08:05:08.778Z,64.15
2023-05-05T08:07:38.184Z,64.31
2023-05-05T08:10:05.420Z,65.00
2023-05-05T08:12:32.320Z,65.62
2023-05-05T08:14:59.092Z,66.25
2023-05-05T08:17:29.133Z,65.97
2023-05-05T08:19:56.186Z,66.24
2023-05-05T08:22:23.040Z,66.54
2023-05-05T08:24:53.013Z,65.77
2023-05-05T08:27:19.750Z,65.94
2023-05-05T08:29:46.450Z,65.39
2023-05-05T08:32:13.486Z,64.73
2023-05-05T08:34:40.504Z,64.66
2023-05-05T08:37:10.351Z,64.50
2023-05-05T08:39:40.694Z,64.66
2023-05-05T08:42:09.929Z,64.43
2023-05-05T08:44:37.057Z,63.10
2023-05-05T08:47:08.839Z,63.51
2023-05-05T08:49:46.110Z,63.79
2023-05-05T08:52:21.150Z,61.34
2023-05-05T08:54:57.238Z,62.34
2023-05-05T08:57:46.465Z,61.87
2023-05-05T09:00:13.747Z,62.45
2023-05-05T09:02:42.995Z,62.17
2023-05-05T09:05:12.843Z,61.50
2023-05-05T09:07:44.049Z,59.87
2023-05-05T09:10:12.289Z,60.59
2023-05-05T09:12:40.647Z,60.52
2023-05-05T09:15:11.867Z,57.66
2023-05-05T09:17:39.544Z,57.93
2023-05-05T09:20:08.666Z,57.71
2023-05-05T09:22:46.808Z,57.16
2023-05-05T09:25:15.696Z,53.66
2023-05-05T09:27:47.968Z,56.49
2023-05-05T09:30:17.283Z,57.05
2023-05-05T09:32:54.050Z,56.82
2023-05-05T09:35:22.548Z,56.58
2023-05-05T09:37:49.563Z,56.80
2023-05-05T09:40:18.513Z,57.19
2023-05-05T09:42:45.769Z,56.72
2023-05-05T09:45:20.749Z,55.37
2023-05-05T09:47:48.627Z,54.58
2023-05-05T09:50:21.444Z,53.46
2023-05-05T09:52:59.126Z,53.44
2023-05-05T09:55:25.946Z,54.93
2023-05-05T09:57:53.062Z,49.78
2023-05-05T10:00:20.374Z,49.39
2023-05-05T10:02:47.203Z,49.83
2023-05-05T10:05:16.298Z,49.38
2023-05-05T10:07:47.973Z,46.72
2023-05-05T10:10:20.790Z,48.35
2023-05-05T10:12:49.456Z,47.83
2023-05-05T10:15:17.177Z,47.81
2023-05-05T10:18:05.960Z,48.47
2023-05-05T10:20:38.709Z,45.54
2023-05-05T10:23:10.384Z,48.16
2023-05-05T10:25:46.544Z,46.85
2023-05-05T10:28:20.176Z,48.11
2023-05-05T10:30:51.233Z,47.46
2023-05-05T10:33:32.205Z,47.37
2023-05-05T10:36:02.477Z,49.67
2023-05-05T10:38:33.458Z,50.27
2023-05-05T10:41:02.151Z,50.41
2023-05-05T10:43:31.420Z,50.62
2023-05-05T10:45:59.622Z,51.86
2023-05-05T10:49:07.760Z,53.39
2023-05-05T10:51:49.599Z,55.00
2023-05-05T10:54:32.684Z,57.08
2023-05-05T10:57:04.876Z,57.17
2023-05-05T10:59:37.875Z,58.12
2023-05-05T11:02:24.069Z,59.93
2023-05-05T11:05:12.241Z,60.64
2023-05-05T11:07:39.773Z,62.71
2023-05-05T11:10:11.945Z,63.58
2023-05-05T11:12:54.336Z,63.63
2023-05-05T11:15:24.150Z,61.52
2023-05-05T11:17:51.110Z,60.05
2023-05-05T11:20:18.341Z,54.67
2023-05-05T11:23:03.549Z,50.83
2023-05-05T11:25:40.911Z,45.54
2023-05-05T11:28:11.977Z,40.11
2023-05-05T11:30:58.115Z,33.34
2023-05-05T11:33:32.120Z,30.95
2023-05-05T11:36:06.117Z,32.80
2023-05-05T11:38:36.409Z,34.05
2023-05-05T11:41:11.659Z,36.10
2023-05-05T11:43:39.742Z,36.16
2023-05-05T11:46:14.032Z,38.14
2023-05-05T11:48:50.669Z,37.84
2023-05-05T11:51:19.983Z,34.70
2023-05-05T11:53:48.782Z,33.57
2023-05-05T11:56:21.757Z,34.89
2023-05-05T11:58:49.870Z,37.49
2023-05-05T12:01:16.869Z,41.31
2023-05-05T12:03:45.848Z,41.86
2023-05-05T12:06:13.389Z,43.29
2023-05-05T12:08:41.302Z,43.96
2023-05-05T12:11:10.741Z,47.11
2023-05-05T12:13:37.515Z,46.37
2023-05-05T12:16:11.069Z,47.72
2023-05-05T12:18:38.365Z,47.29
2023-05-05T12:21:18.779Z,47.35
2023-05-05T12:23:46.018Z,45.75
2023-05-05T12:26:29.420Z,36.72
2023-05-05T12:28:57.928Z,27.25
2023-05-05T12:31:37.835Z,23.12
2023-05-05T12:34:06.396Z,24.96
2023-05-05T12:36:34.069Z,28.71
2023-05-05T12:39:00.892Z,33.32
2023-05-05T12:41:28.199Z,40.48
2023-05-05T12:43:59.427Z,43.58
2023-05-05T12:46:26.864Z,43.25
2023-05-05T12:49:07.542Z,45.62
2023-05-05T12:51:35.977Z,47.83
2023-05-05T12:54:09.517Z,49.56
2023-05-05T12:56:41.842Z,50.02
2023-05-05T12:59:09.606Z,52.69
2023-05-05T13:01:57.757Z,52.89
2023-05-05T13:04:27.312Z,53.18
2023-05-05T13:07:14.297Z,53.82
2023-05-05T13:09:44.067Z,53.26
2023-05-05T13:12:13.833Z,52.71
2023-05-05T13:14:41.490Z,51.95
2023-05-05T13:17:09.116Z,48.69
2023-05-05T13:19:41.708Z,48.24
2023-05-05T13:22:10.392Z,45.35
2023-05-05T13:24:47.130Z,39.74
2023-05-05T13:27:18.310Z,38.33
2023-05-05T13:29:45.050Z,38.90
2023-05-05T13:32:11.771Z,41.21
2023-05-05T13:34:39.249Z,40.25
2023-05-05T13:37:06.486Z,42.68
2023-05-05T13:39:35.558Z,41.57
2023-05-05T13:42:02.657Z,42.55
2023-05-05T13:44:29.539Z,41.36
2023-05-05T13:46:56.518Z,43.50
2023-05-05T13:49:23.723Z,44.43
2023-05-05T13:51:53.776Z,45.61
2023-05-05T13:54:21.760Z,45.27
2023-05-05T13:56:51.567Z,46.50
2023-05-05T13:59:19.048Z,45.82
2023-05-05T14:01:46.281Z,45.79
2023-05-05T14:04:13.222Z,46.24
2023-05-05T14:06:40.591Z,47.81
2023-05-05T14:09:08.391Z,49.02
2023-05-05T14:11:35.531Z,48.95
2023-05-05T14:14:02.940Z,50.17
2023-05-05T14:16:29.804Z,49.91
2023-05-05T14:18:57.342Z,48.48
2023-05-05T14:21:24.577Z,48.80
2023-05-05T14:23:51.303Z,50.00
2023-05-05T14:26:18.152Z,50.10
2023-05-05T14:28:51.730Z,51.65
2023-05-05T14:31:23.225Z,47.22
2023-05-05T14:33:54.039Z,43.65
2023-05-05T14:36:22.355Z,36.58
2023-05-05T14:38:55.719Z,37.79
2023-05-05T14:41:26.344Z,35.68
2023-05-05T14:43:57.178Z,33.80
2023-05-05T14:46:24.484Z,34.09
2023-05-05T14:48:52.109Z,35.87
2023-05-05T14:51:22.321Z,34.69
2023-05-05T14:53:50.356Z,35.49
2023-05-05T14:56:19.798Z,35.57
2023-05-05T14:58:48.890Z,34.93
2023-05-05T15:01:24.065Z,36.34
2023-05-05T15:03:55.091Z,35.55
2023-05-05T15:06:25.833Z,37.27
2023-05-05T15:08:53.665Z,39.54
2023-05-05T15:11:23.394Z,39.77
2023-05-05T15:13:51.814Z,39.55
2023-05-05T15:16:24.296Z,38.89
2023-05-05T15:18:51.452Z,39.33
2023-05-05T15:21:18.445Z,39.80
2023-05-05T15:23:45.727Z,40.93
2023-05-05T15:26:12.540Z,41.34
2023-05-05T15:28:39.530Z,42.32
2023-05-05T15:31:06.717Z,42.15
2023-05-05T15:33:33.975Z,42.11
2023-05-05T15:36:03.083Z,42.63
2023-05-05T15:38:30.365Z,43.33
2023-05-05T15:40:58.655Z,43.59
2023-05-05T15:43:25.870Z,44.24
2023-05-05T15:45:55.486Z,44.97
2023-05-05T15:48:22.575Z,43.59
2023-05-05T15:50:49.435Z,44.04
2023-05-05T15:53:16.590Z,43.73
2023-05-05T15:55:46.380Z,42.79
2023-05-05T15:58:13.278Z,42.32
2023-05-05T16:00:43.278Z,41.23
2023-05-05T16:03:10.789Z,41.48
2023-05-05T16:05:37.747Z,41.07
2023-05-05T16:08:11.139Z,39.94
2023-05-05T16:10:41.794Z,43.16
2023-05-05T16:13:08.949Z,42.85
2023-05-05T16:15:35.972Z,42.92
2023-05-05T16:18:05.494Z,41.28
2023-05-05T16:20:32.813Z,39.32
2023-05-05T16:22:59.525Z,41.23
2023-05-05T16:25:26.342Z,41.63
2023-05-05T16:27:56.614Z,40.59
2023-05-05T16:30:23.441Z,39.35
2023-05-05T16:32:51.770Z,40.88
2023-05-05T16:35:18.914Z,39.78
2023-05-05T16:37:45.761Z,39.21
2023-05-05T16:40:12.896Z,39.58
2023-05-05T16:42:39.707Z,38.58
2023-05-05T16:45:07.453Z,38.51
2023-05-05T16:47:34.596Z,39.18
2023-05-05T16:50:01.416Z,38.10
2023-05-05T16:52:28.071Z,38.95
2023-05-05T16:54:57.414Z,39.94
2023-05-05T16:57:29.540Z,40.39
2023-05-05T16:59:59.099Z,38.97
2023-05-05T17:02:26.065Z,40.50
2023-05-05T17:04:55.351Z,39.88
2023-05-05T17:07:22.451Z,40.41
2023-05-05T17:09:49.293Z,40.95
2023-05-05T17:12:18.814Z,40.57
2023-05-05T17:14:46.042Z,41.03
2023-05-05T17:17:13.020Z,40.45
2023-05-05T17:19:39.809Z,39.97
2023-05-05T17:22:08.962Z,39.88
2023-05-05T17:24:35.770Z,39.91
2023-05-05T17:27:02.667Z,40.18
2023-05-05T17:29:29.657Z,40.99
2023-05-05T17:31:56.425Z,41.28
2023-05-05T17:34:25.825Z,41.63
2023-05-05T17:36:52.709Z,40.86
2023-05-05T17:39:27.366Z,41.46
2023-05-05T17:41:55.432Z,41.86
2023-05-05T17:44:22.275Z,40.91
2023-05-05T17:46:49.049Z,41.28
2023-05-05T17:49:16.471Z,40.75
2023-05-05T17:51:43.284Z,40.75
2023-05-05T17:54:10.101Z,40.90
2023-05-05T17:56:38.036Z,41.22
2023-05-05T17:59:06.053Z,41.12
2023-05-05T18:01:33.544Z,41.52
2023-05-05T18:04:00.833Z,41.46
2023-05-05T18:06:29.588Z,42.10
2023-05-05T18:08:56.644Z,41.85
2023-05-05T18:11:31.042Z,41.62
2023-05-05T18:14:02.078Z,41.58
2023-05-05T18:16:32.101Z,42.36
2023-05-05T18:19:02.551Z,42.80
2023-05-05T18:21:29.872Z,43.23
2023-05-05T18:24:11.667Z,43.79
2023-05-05T18:26:51.663Z,44.11
2023-05-05T18:29:22.174Z,44.11
2023-05-05T18:31:53.065Z,44.48
2023-05-05T18:34:31.301Z,44.39
2023-05-05T18:37:00.888Z,45.32
2023-05-05T18:39:28.400Z,45.48
2023-05-05T18:41:55.762Z,45.57
2023-05-05T18:44:26.136Z,45.81
2023-05-05T18:46:58.749Z,45.80
2023-05-05T18:49:31.436Z,45.35
2023-05-05T18:52:04.575Z,45.40
2023-05-05T18:54:31.768Z,44.57
2023-05-05T18:57:03.819Z,44.22
2023-05-05T18:59:31.762Z,44.03
2023-05-05T19:01:59.780Z,44.03
2023-05-05T19:04:31.704Z,43.77
2023-05-05T19:07:00.065Z,44.00
2023-05-05T19:09:30.882Z,44.96
2023-05-05T19:11:59.053Z,44.79
2023-05-05T19:14:29.526Z,44.93
2023-05-05T19:17:01.831Z,44.99
2023-05-05T19:19:36.082Z,45.15
2023-05-05T19:22:06.228Z,45.18
2023-05-05T19:24:35.673Z,45.53
2023-05-05T19:27:09.309Z,45.71
2023-05-05T19:29:42.775Z,46.51
2023-05-05T19:32:09.849Z,46.03
2023-05-05T19:34:36.616Z,46.70
2023-05-05T19:37:06.600Z,46.73
2023-05-05T19:39:33.601Z,46.31
2023-05-05T19:42:03.781Z,47.19
2023-05-05T19:44:34.931Z,46.93
2023-05-05T19:47:02.199Z,46.69
2023-05-05T19:49:32.168Z,46.79
2023-05-05T19:52:01.645Z,47.00
2023-05-05T19:54:28.828Z,47.80
2023-05-05T19:56:57.314Z,46.86
2023-05-05T19:59:24.156Z,47.18
2023-05-05T20:01:51.845Z,48.32
2023-05-05T20:04:24.035Z,47.59
2023-05-05T20:07:33.614Z,47.84
2023-05-05T20:10:09.815Z,48.27
2023-05-05T20:12:36.926Z,47.67
2023-05-05T20:15:04.305Z,47.84
2023-05-05T20:17:35.179Z,47.68
2023-05-05T20:20:01.899Z,48.28
2023-05-05T20:22:40.123Z,48.06
2023-05-05T20:25:08.983Z,48.13
2023-05-05T20:27:46.008Z,48.32
2023-05-05T20:30:16.369Z,48.18
2023-05-05T20:32:46.283Z,48.28
2023-05-05T20:35:36.365Z,48.11
2023-05-05T20:38:07.262Z,48.90
2023-05-05T20:40:34.244Z,48.35
2023-05-05T20:43:01.093Z,48.38
2023-05-05T20:45:29.848Z,47.77
2023-05-05T20:47:56.681Z,49.04
2023-05-05T20:50:28.142Z,48.15
2023-05-05T20:52:55.591Z,48.81
2023-05-05T20:55:22.611Z,48.13
2023-05-05T20:57:49.399Z,47.58
2023-05-05T21:00:16.330Z,48.27
2023-05-05T21:02:46.731Z,47.81
2023-05-05T21:05:14.445Z,48.38
2023-05-05T21:07:42.967Z,48.38
2023-05-05T21:10:11.257Z,48.10
2023-05-05T21:12:41.037Z,47.53
2023-05-05T21:15:11.727Z,48.19
2023-05-05T21:17:43.871Z,48.00
2023-05-05T21:20:14.434Z,48.44
2023-05-05T21:22:45.135Z,48.05
2023-05-05T21:25:20.922Z,47.79
2023-05-05T21:27:48.659Z,47.78
2023-05-05T21:30:15.900Z,46.85
2023-05-05T21:32:43.151Z,47.03
2023-05-05T21:35:10.229Z,46.80
2023-05-05T21:37:39.046Z,47.39
2023-05-05T21:40:09.511Z,47.47
2023-05-05T21:42:36.882Z,48.08
2023-05-05T21:45:03.956Z,47.67
2023-05-05T21:47:30.808Z,47.72
2023-05-05T21:49:58.262Z,47.90
2023-05-05T21:52:24.975Z,47.46
2023-05-05T21:54:51.659Z,47.59
2023-05-05T21:57:18.482Z,47.38
2023-05-05T21:59:45.201Z,47.07
2023-05-05T22:02:12.112Z,47.25
2023-05-05T22:04:38.983Z,47.03
2023-05-05T22:07:05.795Z,47.08
2023-05-05T22:09:32.472Z,47.53
2023-05-05T22:11:59.562Z,47.27
2023-05-05T22:14:26.337Z,46.69
2023-05-05T22:16:53.055Z,47.00
2023-05-05T22:19:19.825Z,47.19
2023-05-05T22:21:48.661Z,46.45
2023-05-05T22:24:15.436Z,47.53
2023-05-05T22:26:44.408Z,47.33
2023-05-05T22:29:11.342Z,47.67
2023-05-05T22:31:41.470Z,47.34
2023-05-05T22:34:08.454Z,46.69
2023-05-05T22:36:42.910Z,46.54
2023-05-05T22:39:10.322Z,46.98
2023-05-05T22:41:43.909Z,46.66
2023-05-05T22:44:10.709Z,46.89
2023-05-05T22:46:37.544Z,46.79
2023-05-05T22:49:04.312Z,47.04
2023-05-05T22:51:34.658Z,46.89
2023-05-05T22:54:01.592Z,46.96
2023-05-05T22:56:28.348Z,46.83
2023-05-05T22:58:56.367Z,47.06
2023-05-05T23:01:23.724Z,46.84
2023-05-05T23:03:50.549Z,47.41
2023-05-05T23:06:20.729Z,47.62
2023-05-05T23:08:48.927Z,47.20
2023-05-05T23:11:15.709Z,47.35
2023-05-05T23:13:42.584Z,47.74
2023-05-05T23:16:09.325Z,47.48
2023-05-05T23:18:36.627Z,47.82
2023-05-05T23:21:03.820Z,47.71
2023-05-05T23:23:31.157Z,47.84
2023-05-05T23:25:57.949Z,48.04
2023-05-05T23:28:24.797Z,47.81
2023-05-05T23:30:51.582Z,47.86
2023-05-05T23:33:18.327Z,48.27
2023-05-05T23:35:45.605Z,48.65
2023-05-05T23:38:12.352Z,48.30
2023-05-05T23:40:39.053Z,48.51
2023-05-05T23:43:06.040Z,48.42
2023-05-05T23:45:32.771Z,48.83
2023-05-05T23:47:59.546Z,49.31
2023-05-05T23:50:27.818Z,48.76
2023-05-05T23:52:54.800Z,49.41
2023-05-05T23:55:21.714Z,49.26
2023-05-05T23:57:48.678Z,49.74
